sensor_id;sensor_type;location;lat;lon;timestamp;pressure;altitude;pressure_sealevel;temperature;humidity
73918;BME280;63639;52.280;5.162;2022-10-19T00:01:15;103083.84;;;17.28;54.49
73918;BME280;63639;52.280;5.162;2022-10-19T00:03:43;103085.37;;;17.25;54.51
73918;BME280;63639;52.280;5.162;2022-10-19T00:06:13;103087.31;;;17.22;54.55
73918;BME280;63639;52.280;5.162;2022-10-19T00:08:42;103088.09;;;17.21;54.56
73918;BME280;63639;52.280;5.162;2022-10-19T00:11:09;103086.11;;;17.19;54.50
73918;BME280;63639;52.280;5.162;2022-10-19T00:13:36;103084.43;;;17.16;54.54
73918;BME280;63639;52.280;5.162;2022-10-19T00:16:08;103082.76;;;17.15;54.57
73918;BME280;63639;52.280;5.162;2022-10-19T00:18:36;103076.51;;;17.12;54.51
73918;BME280;63639;52.280;5.162;2022-10-19T00:21:04;103073.73;;;17.10;54.57
73918;BME280;63639;52.280;5.162;2022-10-19T00:23:32;103072.51;;;17.08;54.55
73918;BME280;63639;52.280;5.162;2022-10-19T00:25:59;103069.34;;;17.05;54.50
73918;BME280;63639;52.280;5.162;2022-10-19T00:28:27;103069.80;;;17.04;54.49
73918;BME280;63639;52.280;5.162;2022-10-19T00:30:54;103069.90;;;17.02;54.52
73918;BME280;63639;52.280;5.162;2022-10-19T00:33:21;103067.52;;;17.00;54.55
73918;BME280;63639;52.280;5.162;2022-10-19T00:35:48;103067.01;;;16.98;54.51
73918;BME280;63639;52.280;5.162;2022-10-19T00:38:17;103064.18;;;16.95;54.45
73918;BME280;63639;52.280;5.162;2022-10-19T00:40:44;103067.18;;;16.93;54.47
73918;BME280;63639;52.280;5.162;2022-10-19T00:43:14;103068.35;;;16.92;54.45
73918;BME280;63639;52.280;5.162;2022-10-19T00:45:42;103064.91;;;16.90;54.46
73918;BME280;63639;52.280;5.162;2022-10-19T00:48:12;103065.67;;;16.88;54.44
73918;BME280;63639;52.280;5.162;2022-10-19T00:50:41;103066.61;;;16.86;54.40
73918;BME280;63639;52.280;5.162;2022-10-19T00:53:10;103065.16;;;16.81;54.48
73918;BME280;63639;52.280;5.162;2022-10-19T00:55:38;103065.32;;;16.77;54.56
73918;BME280;63639;52.280;5.162;2022-10-19T00:58:05;103065.80;;;16.74;54.46
73918;BME280;63639;52.280;5.162;2022-10-19T01:03:19;103060.93;;;16.73;54.51
73918;BME280;63639;52.280;5.162;2022-10-19T01:05:46;103061.84;;;16.70;54.55
73918;BME280;63639;52.280;5.162;2022-10-19T01:08:13;103062.42;;;16.68;54.52
73918;BME280;63639;52.280;5.162;2022-10-19T01:10:45;103060.97;;;16.66;54.50
73918;BME280;63639;52.280;5.162;2022-10-19T01:13:26;103059.31;;;16.65;54.50
73918;BME280;63639;52.280;5.162;2022-10-19T01:16:02;103053.55;;;16.62;54.45
73918;BME280;63639;52.280;5.162;2022-10-19T01:18:43;103052.91;;;16.60;54.45
73918;BME280;63639;52.280;5.162;2022-10-19T01:21:19;103051.18;;;16.58;54.41
73918;BME280;63639;52.280;5.162;2022-10-19T01:24:57;103053.85;;;16.56;54.45
73918;BME280;63639;52.280;5.162;2022-10-19T01:27:36;103052.09;;;16.53;54.40
73918;BME280;63639;52.280;5.162;2022-10-19T01:30:12;103051.58;;;16.52;54.38
73918;BME280;63639;52.280;5.162;2022-10-19T01:32:52;103055.55;;;16.49;54.39
73918;BME280;63639;52.280;5.162;2022-10-19T01:35:26;103058.74;;;16.47;54.36
73918;BME280;63639;52.280;5.162;2022-10-19T01:38:03;103057.07;;;16.44;54.44
73918;BME280;63639;52.280;5.162;2022-10-19T01:40:39;103053.99;;;16.43;54.43
73918;BME280;63639;52.280;5.162;2022-10-19T01:43:14;103048.37;;;16.40;54.39
73918;BME280;63639;52.280;5.162;2022-10-19T01:45:49;103047.12;;;16.38;54.45
73918;BME280;63639;52.280;5.162;2022-10-19T01:48:21;103045.94;;;16.35;54.48
73918;BME280;63639;52.280;5.162;2022-10-19T01:50:56;103043.34;;;16.33;54.41
73918;BME280;63639;52.280;5.162;2022-10-19T01:53:23;103043.21;;;16.32;54.41
73918;BME280;63639;52.280;5.162;2022-10-19T01:55:53;103043.65;;;16.30;54.40
73918;BME280;63639;52.280;5.162;2022-10-19T01:58:25;103042.18;;;16.28;54.37
73918;BME280;63639;52.280;5.162;2022-10-19T02:00:55;103045.41;;;16.26;54.38
73918;BME280;63639;52.280;5.162;2022-10-19T02:03:24;103048.11;;;16.24;54.34
73918;BME280;63639;52.280;5.162;2022-10-19T02:05:53;103048.52;;;16.22;54.34
73918;BME280;63639;52.280;5.162;2022-10-19T02:08:25;103048.60;;;16.20;54.34
73918;BME280;63639;52.280;5.162;2022-10-19T02:10:54;103047.09;;;16.17;54.34
73918;BME280;63639;52.280;5.162;2022-10-19T02:13:23;103046.61;;;16.16;54.31
73918;BME280;63639;52.280;5.162;2022-10-19T02:15:53;103046.29;;;16.14;54.34
73918;BME280;63639;52.280;5.162;2022-10-19T02:18:25;103044.06;;;16.12;54.36
73918;BME280;63639;52.280;5.162;2022-10-19T02:20:54;103040.46;;;16.10;54.31
73918;BME280;63639;52.280;5.162;2022-10-19T02:23:24;103037.61;;;16.08;54.34
73918;BME280;63639;52.280;5.162;2022-10-19T02:25:53;103031.08;;;16.06;54.36
73918;BME280;63639;52.280;5.162;2022-10-19T02:28:21;103028.42;;;16.04;54.33
73918;BME280;63639;52.280;5.162;2022-10-19T02:30:48;103028.40;;;16.01;54.37
73918;BME280;63639;52.280;5.162;2022-10-19T02:33:17;103025.77;;;15.98;54.39
73918;BME280;63639;52.280;5.162;2022-10-19T02:35:44;103028.69;;;15.97;54.42
73918;BME280;63639;52.280;5.162;2022-10-19T02:38:15;103025.65;;;15.94;54.38
73918;BME280;63639;52.280;5.162;2022-10-19T02:40:48;103023.10;;;15.91;54.33
73918;BME280;63639;52.280;5.162;2022-10-19T02:43:19;103022.10;;;15.90;54.38
73918;BME280;63639;52.280;5.162;2022-10-19T02:45:51;103023.93;;;15.88;54.35
73918;BME280;63639;52.280;5.162;2022-10-19T02:48:22;103022.28;;;15.86;54.33
73918;BME280;63639;52.280;5.162;2022-10-19T02:50:50;103018.46;;;15.84;54.33
73918;BME280;63639;52.280;5.162;2022-10-19T02:53:17;103014.51;;;15.83;54.36
73918;BME280;63639;52.280;5.162;2022-10-19T02:55:46;103012.37;;;15.81;54.36
73918;BME280;63639;52.280;5.162;2022-10-19T02:58:13;103012.70;;;15.78;54.34
73918;BME280;63639;52.280;5.162;2022-10-19T03:00:40;103013.70;;;15.76;54.40
73918;BME280;63639;52.280;5.162;2022-10-19T03:03:07;103017.32;;;15.74;54.35
73918;BME280;63639;52.280;5.162;2022-10-19T03:05:34;103020.09;;;15.72;54.39
73918;BME280;63639;52.280;5.162;2022-10-19T03:08:01;103019.16;;;15.70;54.38
73918;BME280;63639;52.280;5.162;2022-10-19T03:10:28;103015.41;;;15.68;54.36
73918;BME280;63639;52.280;5.162;2022-10-19T03:12:56;103010.51;;;15.64;54.42
73918;BME280;63639;52.280;5.162;2022-10-19T03:15:23;103008.39;;;15.63;54.39
73918;BME280;63639;52.280;5.162;2022-10-19T03:17:51;103006.76;;;15.62;54.41
73918;BME280;63639;52.280;5.162;2022-10-19T03:20:19;103007.56;;;15.61;54.42
73918;BME280;63639;52.280;5.162;2022-10-19T03:22:46;103009.54;;;15.58;54.40
73918;BME280;63639;52.280;5.162;2022-10-19T03:25:13;103007.21;;;15.55;54.45
73918;BME280;63639;52.280;5.162;2022-10-19T03:27:40;103006.93;;;15.53;54.45
73918;BME280;63639;52.280;5.162;2022-10-19T03:30:07;103003.77;;;15.51;54.47
73918;BME280;63639;52.280;5.162;2022-10-19T03:32:35;103005.37;;;15.50;54.45
73918;BME280;63639;52.280;5.162;2022-10-19T03:35:01;103001.80;;;15.48;54.45
73918;BME280;63639;52.280;5.162;2022-10-19T03:37:28;102998.42;;;15.47;54.46
73918;BME280;63639;52.280;5.162;2022-10-19T03:39:55;102995.96;;;15.45;54.46
73918;BME280;63639;52.280;5.162;2022-10-19T03:42:22;102992.26;;;15.43;54.46
73918;BME280;63639;52.280;5.162;2022-10-19T03:44:50;102993.59;;;15.41;54.46
73918;BME280;63639;52.280;5.162;2022-10-19T03:47:16;102993.17;;;15.38;54.48
73918;BME280;63639;52.280;5.162;2022-10-19T03:49:44;102995.44;;;15.38;54.48
73918;BME280;63639;52.280;5.162;2022-10-19T03:52:11;102994.22;;;15.35;54.47
73918;BME280;63639;52.280;5.162;2022-10-19T03:54:38;102990.93;;;15.32;54.52
73918;BME280;63639;52.280;5.162;2022-10-19T03:57:05;102992.09;;;15.31;54.47
73918;BME280;63639;52.280;5.162;2022-10-19T03:59:32;102991.12;;;15.29;54.55
73918;BME280;63639;52.280;5.162;2022-10-19T04:01:59;102992.08;;;15.28;54.52
73918;BME280;63639;52.280;5.162;2022-10-19T04:04:26;102992.33;;;15.26;54.51
73918;BME280;63639;52.280;5.162;2022-10-19T04:06:53;102994.20;;;15.24;54.54
73918;BME280;63639;52.280;5.162;2022-10-19T04:09:21;102995.88;;;15.22;54.55
73918;BME280;63639;52.280;5.162;2022-10-19T04:11:49;102997.11;;;15.20;54.55
73918;BME280;63639;52.280;5.162;2022-10-19T04:14:21;102998.62;;;15.19;54.53
73918;BME280;63639;52.280;5.162;2022-10-19T04:16:48;102996.09;;;15.17;54.56
73918;BME280;63639;52.280;5.162;2022-10-19T04:19:16;102995.42;;;15.16;54.56
73918;BME280;63639;52.280;5.162;2022-10-19T04:21:46;102993.83;;;15.14;54.54
73918;BME280;63639;52.280;5.162;2022-10-19T04:24:15;102990.26;;;15.12;54.57
73918;BME280;63639;52.280;5.162;2022-10-19T04:26:44;102991.76;;;15.10;54.56
73918;BME280;63639;52.280;5.162;2022-10-19T04:29:11;102995.14;;;15.08;54.61
73918;BME280;63639;52.280;5.162;2022-10-19T04:31:40;102996.29;;;15.07;54.55
73918;BME280;63639;52.280;5.162;2022-10-19T04:34:07;102998.60;;;15.05;54.59
73918;BME280;63639;52.280;5.162;2022-10-19T04:36:34;103000.04;;;15.03;54.57
73918;BME280;63639;52.280;5.162;2022-10-19T04:39:01;102999.38;;;15.02;54.55
73918;BME280;63639;52.280;5.162;2022-10-19T04:41:28;102996.81;;;15.01;54.55
73918;BME280;63639;52.280;5.162;2022-10-19T04:43:56;102998.11;;;14.98;54.56
73918;BME280;63639;52.280;5.162;2022-10-19T04:46:25;102999.08;;;14.97;54.56
73918;BME280;63639;52.280;5.162;2022-10-19T04:48:52;103003.80;;;14.95;54.57
73918;BME280;63639;52.280;5.162;2022-10-19T04:51:20;103003.82;;;14.93;54.56
73918;BME280;63639;52.280;5.162;2022-10-19T04:53:47;103001.80;;;14.91;54.60
73918;BME280;63639;52.280;5.162;2022-10-19T04:56:17;103000.57;;;14.90;54.62
73918;BME280;63639;52.280;5.162;2022-10-19T04:58:45;102995.91;;;14.88;54.57
73918;BME280;63639;52.280;5.162;2022-10-19T05:01:14;102991.27;;;14.87;54.60
73918;BME280;63639;52.280;5.162;2022-10-19T05:03:41;102992.23;;;14.85;54.62
73918;BME280;63639;52.280;5.162;2022-10-19T05:06:09;102997.41;;;14.84;54.59
73918;BME280;63639;52.280;5.162;2022-10-19T05:08:38;102996.90;;;14.82;54.62
73918;BME280;63639;52.280;5.162;2022-10-19T05:11:06;102994.79;;;14.80;54.66
73918;BME280;63639;52.280;5.162;2022-10-19T05:13:35;102989.40;;;14.79;54.67
73918;BME280;63639;52.280;5.162;2022-10-19T05:16:04;102987.66;;;14.78;54.60
73918;BME280;63639;52.280;5.162;2022-10-19T05:18:33;102985.83;;;14.76;54.64
73918;BME280;63639;52.280;5.162;2022-10-19T05:21:02;102982.60;;;14.74;54.66
73918;BME280;63639;52.280;5.162;2022-10-19T05:23:29;102983.09;;;14.73;54.60
73918;BME280;63639;52.280;5.162;2022-10-19T05:26:01;102983.12;;;14.72;54.61
73918;BME280;63639;52.280;5.162;2022-10-19T05:28:28;102981.67;;;14.70;54.58
73918;BME280;63639;52.280;5.162;2022-10-19T05:30:55;102980.98;;;14.69;54.56
73918;BME280;63639;52.280;5.162;2022-10-19T05:33:22;102981.35;;;14.67;54.63
73918;BME280;63639;52.280;5.162;2022-10-19T05:35:49;102981.38;;;14.66;54.64
73918;BME280;63639;52.280;5.162;2022-10-19T05:38:16;102981.40;;;14.65;54.59
73918;BME280;63639;52.280;5.162;2022-10-19T05:40:45;102982.76;;;14.64;54.59
73918;BME280;63639;52.280;5.162;2022-10-19T05:43:12;102982.06;;;14.61;54.57
73918;BME280;63639;52.280;5.162;2022-10-19T05:45:39;102981.52;;;14.60;54.59
73918;BME280;63639;52.280;5.162;2022-10-19T05:48:06;102977.60;;;14.59;54.58
73918;BME280;63639;52.280;5.162;2022-10-19T05:50:33;102977.27;;;14.57;54.57
73918;BME280;63639;52.280;5.162;2022-10-19T05:53:01;102980.83;;;14.56;54.57
73918;BME280;63639;52.280;5.162;2022-10-19T05:55:29;102983.74;;;14.55;54.59
73918;BME280;63639;52.280;5.162;2022-10-19T05:58:00;102985.27;;;14.53;54.65
73918;BME280;63639;52.280;5.162;2022-10-19T06:00:29;102982.99;;;14.52;54.58
73918;BME280;63639;52.280;5.162;2022-10-19T06:02:57;102980.33;;;14.51;54.61
73918;BME280;63639;52.280;5.162;2022-10-19T06:05:25;102981.58;;;14.50;54.59
73918;BME280;63639;52.280;5.162;2022-10-19T06:07:52;102979.01;;;14.49;54.58
73918;BME280;63639;52.280;5.162;2022-10-19T06:10:18;102981.88;;;14.47;54.63
73918;BME280;63639;52.280;5.162;2022-10-19T06:12:46;102985.65;;;14.45;54.58
73918;BME280;63639;52.280;5.162;2022-10-19T06:15:13;102986.24;;;14.44;54.65
73918;BME280;63639;52.280;5.162;2022-10-19T06:17:41;102987.50;;;14.42;54.66
73918;BME280;63639;52.280;5.162;2022-10-19T06:20:08;102985.75;;;14.41;54.64
73918;BME280;63639;52.280;5.162;2022-10-19T06:22:35;102981.82;;;14.39;54.64
73918;BME280;63639;52.280;5.162;2022-10-19T06:25:03;102983.66;;;14.38;54.67
73918;BME280;63639;52.280;5.162;2022-10-19T06:27:31;102991.63;;;14.37;54.62
73918;BME280;63639;52.280;5.162;2022-10-19T06:29:58;102997.70;;;14.36;54.63
73918;BME280;63639;52.280;5.162;2022-10-19T06:32:26;102997.13;;;14.34;54.67
73918;BME280;63639;52.280;5.162;2022-10-19T06:34:53;102994.28;;;14.34;54.65
73918;BME280;63639;52.280;5.162;2022-10-19T06:37:19;102993.96;;;14.33;54.64
73918;BME280;63639;52.280;5.162;2022-10-19T06:39:46;102991.01;;;14.30;54.68
73918;BME280;63639;52.280;5.162;2022-10-19T06:42:13;102988.68;;;14.29;54.67
73918;BME280;63639;52.280;5.162;2022-10-19T06:44:40;102982.42;;;14.28;54.68
73918;BME280;63639;52.280;5.162;2022-10-19T06:47:07;102980.05;;;14.26;54.72
73918;BME280;63639;52.280;5.162;2022-10-19T06:49:34;102983.62;;;14.25;54.72
73918;BME280;63639;52.280;5.162;2022-10-19T06:52:01;102983.99;;;14.24;54.74
73918;BME280;63639;52.280;5.162;2022-10-19T06:54:28;102977.30;;;14.23;54.72
73918;BME280;63639;52.280;5.162;2022-10-19T06:56:55;102976.64;;;14.21;54.75
73918;BME280;63639;52.280;5.162;2022-10-19T06:59:23;102971.14;;;14.20;54.78
73918;BME280;63639;52.280;5.162;2022-10-19T07:01:50;102976.13;;;14.19;54.80
73918;BME280;63639;52.280;5.162;2022-10-19T07:04:17;102977.57;;;14.17;54.86
73918;BME280;63639;52.280;5.162;2022-10-19T07:06:45;102979.42;;;14.16;54.86
73918;BME280;63639;52.280;5.162;2022-10-19T07:09:12;102975.17;;;14.15;54.86
73918;BME280;63639;52.280;5.162;2022-10-19T07:11:38;102970.08;;;14.14;54.92
73918;BME280;63639;52.280;5.162;2022-10-19T07:14:05;102968.20;;;14.12;54.95
73918;BME280;63639;52.280;5.162;2022-10-19T07:16:32;102969.62;;;14.11;54.97
73918;BME280;63639;52.280;5.162;2022-10-19T07:18:59;102971.77;;;14.10;55.05
73918;BME280;63639;52.280;5.162;2022-10-19T07:21:26;102973.32;;;14.09;55.07
73918;BME280;63639;52.280;5.162;2022-10-19T07:23:53;102975.30;;;14.08;55.10
73918;BME280;63639;52.280;5.162;2022-10-19T07:26:21;102980.75;;;14.07;55.15
73918;BME280;63639;52.280;5.162;2022-10-19T07:28:49;102984.30;;;14.06;55.17
73918;BME280;63639;52.280;5.162;2022-10-19T07:31:18;102982.18;;;14.04;55.25
73918;BME280;63639;52.280;5.162;2022-10-19T07:33:46;102976.87;;;14.04;55.35
73918;BME280;63639;52.280;5.162;2022-10-19T07:36:13;102969.97;;;14.03;55.39
73918;BME280;63639;52.280;5.162;2022-10-19T07:38:40;102970.76;;;14.02;55.41
73918;BME280;63639;52.280;5.162;2022-10-19T07:41:10;102973.71;;;14.02;55.47
73918;BME280;63639;52.280;5.162;2022-10-19T07:43:38;102977.11;;;14.00;55.47
73918;BME280;63639;52.280;5.162;2022-10-19T07:46:07;102982.96;;;14.00;55.44
73918;BME280;63639;52.280;5.162;2022-10-19T07:48:35;102982.00;;;13.99;55.46
73918;BME280;63639;52.280;5.162;2022-10-19T07:51:04;102980.17;;;13.99;55.50
73918;BME280;63639;52.280;5.162;2022-10-19T07:53:33;102976.14;;;14.00;55.47
73918;BME280;63639;52.280;5.162;2022-10-19T07:56:03;102973.69;;;13.99;55.51
73918;BME280;63639;52.280;5.162;2022-10-19T07:58:30;102977.32;;;13.98;55.56
73918;BME280;63639;52.280;5.162;2022-10-19T08:00:59;102978.13;;;13.98;55.62
73918;BME280;63639;52.280;5.162;2022-10-19T08:03:26;102980.00;;;13.96;55.62
73918;BME280;63639;52.280;5.162;2022-10-19T08:05:55;102985.08;;;13.96;55.68
73918;BME280;63639;52.280;5.162;2022-10-19T08:08:24;102985.73;;;13.96;55.72
73918;BME280;63639;52.280;5.162;2022-10-19T08:10:51;102989.50;;;13.96;55.67
73918;BME280;63639;52.280;5.162;2022-10-19T08:13:19;102985.97;;;13.95;56.94
73918;BME280;63639;52.280;5.162;2022-10-19T08:15:46;102988.31;;;13.93;57.45
73918;BME280;63639;52.280;5.162;2022-10-19T08:18:13;102987.14;;;13.95;56.87
73918;BME280;63639;52.280;5.162;2022-10-19T08:20:39;102982.47;;;13.96;56.41
73918;BME280;63639;52.280;5.162;2022-10-19T08:23:06;102978.46;;;13.97;56.37
73918;BME280;63639;52.280;5.162;2022-10-19T08:25:33;102983.26;;;13.97;56.40
73918;BME280;63639;52.280;5.162;2022-10-19T08:28:00;102986.56;;;13.98;56.29
73918;BME280;63639;52.280;5.162;2022-10-19T08:30:27;102982.27;;;13.99;56.48
73918;BME280;63639;52.280;5.162;2022-10-19T08:32:54;102977.66;;;14.00;56.28
73918;BME280;63639;52.280;5.162;2022-10-19T08:35:21;102975.32;;;14.00;56.31
73918;BME280;63639;52.280;5.162;2022-10-19T08:37:47;102971.69;;;14.01;56.56
73918;BME280;63639;52.280;5.162;2022-10-19T08:40:17;102973.84;;;14.03;56.45
73918;BME280;63639;52.280;5.162;2022-10-19T08:42:51;102966.22;;;14.05;56.67
73918;BME280;63639;52.280;5.162;2022-10-19T08:45:26;102964.48;;;14.08;56.55
73918;BME280;63639;52.280;5.162;2022-10-19T08:47:59;102963.64;;;14.11;57.00
73918;BME280;63639;52.280;5.162;2022-10-19T08:50:35;102963.98;;;14.12;56.95
73918;BME280;63639;52.280;5.162;2022-10-19T08:53:06;102965.77;;;14.14;56.84
73918;BME280;63639;52.280;5.162;2022-10-19T08:55:40;102960.33;;;14.18;56.80
73918;BME280;63639;52.280;5.162;2022-10-19T08:58:20;102961.14;;;14.22;56.91
73918;BME280;63639;52.280;5.162;2022-10-19T09:00:56;102957.37;;;14.26;56.86
73918;BME280;63639;52.280;5.162;2022-10-19T09:03:30;102957.77;;;14.30;56.81
73918;BME280;63639;52.280;5.162;2022-10-19T09:06:06;102948.97;;;14.35;57.13
73918;BME280;63639;52.280;5.162;2022-10-19T09:08:37;102943.69;;;14.39;57.22
73918;BME280;63639;52.280;5.162;2022-10-19T09:11:06;102939.29;;;14.43;57.30
73918;BME280;63639;52.280;5.162;2022-10-19T09:13:39;102936.13;;;14.48;57.13
73918;BME280;63639;52.280;5.162;2022-10-19T09:16:12;102941.30;;;14.52;57.28
73918;BME280;63639;52.280;5.162;2022-10-19T09:18:40;102940.59;;;14.57;57.39
73918;BME280;63639;52.280;5.162;2022-10-19T09:21:11;102937.31;;;14.62;57.30
73918;BME280;63639;52.280;5.162;2022-10-19T09:23:43;102936.39;;;14.67;57.43
73918;BME280;63639;52.280;5.162;2022-10-19T09:26:14;102929.96;;;14.73;57.49
73918;BME280;63639;52.280;5.162;2022-10-19T09:28:51;102924.45;;;14.79;57.33
73918;BME280;63639;52.280;5.162;2022-10-19T09:31:25;102920.47;;;14.86;57.31
73918;BME280;63639;52.280;5.162;2022-10-19T09:33:56;102914.72;;;14.93;57.59
73918;BME280;63639;52.280;5.162;2022-10-19T09:36:32;102912.43;;;15.01;57.37
73918;BME280;63639;52.280;5.162;2022-10-19T09:39:00;102904.52;;;15.09;57.29
73918;BME280;63639;52.280;5.162;2022-10-19T09:41:27;102900.10;;;15.16;57.07
73918;BME280;63639;52.280;5.162;2022-10-19T09:43:54;102903.40;;;15.22;56.85
73918;BME280;63639;52.280;5.162;2022-10-19T09:46:36;102895.61;;;15.28;56.75
73918;BME280;63639;52.280;5.162;2022-10-19T09:49:05;102897.50;;;15.34;56.61
73918;BME280;63639;52.280;5.162;2022-10-19T09:51:40;102896.90;;;15.39;56.60
73918;BME280;63639;52.280;5.162;2022-10-19T09:54:23;102898.91;;;15.45;56.50
73918;BME280;63639;52.280;5.162;2022-10-19T09:56:53;102898.92;;;15.51;56.43
73918;BME280;63639;52.280;5.162;2022-10-19T09:59:21;102898.18;;;15.58;56.35
73918;BME280;63639;52.280;5.162;2022-10-19T10:01:59;102901.50;;;15.66;56.24
73918;BME280;63639;52.280;5.162;2022-10-19T10:04:26;102898.78;;;15.76;56.00
73918;BME280;63639;52.280;5.162;2022-10-19T10:06:53;102900.06;;;15.84;55.90
73918;BME280;63639;52.280;5.162;2022-10-19T10:09:24;102898.14;;;15.90;55.77
73918;BME280;63639;52.280;5.162;2022-10-19T10:11:53;102899.96;;;15.97;55.79
73918;BME280;63639;52.280;5.162;2022-10-19T10:14:25;102899.82;;;16.10;55.61
73918;BME280;63639;52.280;5.162;2022-10-19T10:16:54;102896.96;;;16.20;55.32
73918;BME280;63639;52.280;5.162;2022-10-19T10:19:26;102897.91;;;16.35;54.96
73918;BME280;63639;52.280;5.162;2022-10-19T10:21:54;102902.10;;;16.46;54.66
73918;BME280;63639;52.280;5.162;2022-10-19T10:24:23;102892.29;;;16.58;54.64
73918;BME280;63639;52.280;5.162;2022-10-19T10:26:53;102897.04;;;16.70;54.12
73918;BME280;63639;52.280;5.162;2022-10-19T10:29:22;102902.38;;;16.76;54.15
73918;BME280;63639;52.280;5.162;2022-10-19T10:31:51;102906.63;;;16.78;54.14
73918;BME280;63639;52.280;5.162;2022-10-19T10:34:31;102901.03;;;16.89;53.54
73918;BME280;63639;52.280;5.162;2022-10-19T10:36:58;102895.63;;;16.81;53.93
73918;BME280;63639;52.280;5.162;2022-10-19T10:39:27;102894.76;;;16.76;54.16
73918;BME280;63639;52.280;5.162;2022-10-19T10:41:58;102887.95;;;16.97;53.92
73918;BME280;63639;52.280;5.162;2022-10-19T10:44:28;102888.61;;;17.31;52.77
73918;BME280;63639;52.280;5.162;2022-10-19T10:46:58;102872.52;;;17.35;52.78
73918;BME280;63639;52.280;5.162;2022-10-19T10:49:27;102872.51;;;17.55;52.32
73918;BME280;63639;52.280;5.162;2022-10-19T10:51:56;102870.00;;;17.74;51.71
73918;BME280;63639;52.280;5.162;2022-10-19T10:54:27;102865.65;;;17.83;51.29
73918;BME280;63639;52.280;5.162;2022-10-19T10:57:01;102860.91;;;17.82;51.34
73918;BME280;63639;52.280;5.162;2022-10-19T10:59:31;102853.70;;;17.78;51.81
73918;BME280;63639;52.280;5.162;2022-10-19T11:02:02;102852.70;;;17.75;51.75
73918;BME280;63639;52.280;5.162;2022-10-19T11:04:32;102848.57;;;17.73;51.59
73918;BME280;63639;52.280;5.162;2022-10-19T11:07:09;102842.38;;;17.71;51.93
73918;BME280;63639;52.280;5.162;2022-10-19T11:09:45;102839.83;;;17.68;52.59
73918;BME280;63639;52.280;5.162;2022-10-19T11:12:15;102833.06;;;17.68;52.81
73918;BME280;63639;52.280;5.162;2022-10-19T11:14:48;102830.32;;;17.69;52.78
73918;BME280;63639;52.280;5.162;2022-10-19T11:17:20;102828.88;;;17.71;52.53
73918;BME280;63639;52.280;5.162;2022-10-19T11:19:49;102824.51;;;17.73;52.52
73918;BME280;63639;52.280;5.162;2022-10-19T11:22:21;102822.24;;;17.74;52.38
73918;BME280;63639;52.280;5.162;2022-10-19T11:25:00;102808.72;;;17.74;53.43
73918;BME280;63639;52.280;5.162;2022-10-19T11:27:40;102801.58;;;17.74;52.73
73918;BME280;63639;52.280;5.162;2022-10-19T11:30:11;102796.75;;;17.75;52.63
73918;BME280;63639;52.280;5.162;2022-10-19T11:32:47;102787.32;;;17.76;53.07
73918;BME280;63639;52.280;5.162;2022-10-19T11:35:31;102775.49;;;17.75;52.87
73918;BME280;63639;52.280;5.162;2022-10-19T11:38:12;102769.47;;;17.74;53.13
73918;BME280;63639;52.280;5.162;2022-10-19T11:40:48;102761.01;;;17.74;52.81
73918;BME280;63639;52.280;5.162;2022-10-19T11:43:22;102753.65;;;17.75;52.50
73918;BME280;63639;52.280;5.162;2022-10-19T11:46:00;102755.94;;;17.78;52.71
73918;BME280;63639;52.280;5.162;2022-10-19T11:48:42;102749.80;;;17.79;53.08
73918;BME280;63639;52.280;5.162;2022-10-19T11:51:15;102746.97;;;17.79;52.82
73918;BME280;63639;52.280;5.162;2022-10-19T11:53:54;102737.05;;;17.80;52.68
73918;BME280;63639;52.280;5.162;2022-10-19T11:56:29;102730.90;;;17.82;52.74
73918;BME280;63639;52.280;5.162;2022-10-19T11:59:04;102729.23;;;17.83;53.08
73918;BME280;63639;52.280;5.162;2022-10-19T12:01:44;102721.52;;;17.84;52.10
73918;BME280;63639;52.280;5.162;2022-10-19T12:04:24;102713.67;;;17.87;52.46
73918;BME280;63639;52.280;5.162;2022-10-19T12:07:01;102708.00;;;17.90;52.74
73918;BME280;63639;52.280;5.162;2022-10-19T12:09:40;102705.26;;;17.92;52.43
73918;BME280;63639;52.280;5.162;2022-10-19T12:12:23;102702.71;;;17.95;52.54
73918;BME280;63639;52.280;5.162;2022-10-19T12:14:58;102697.52;;;17.99;52.97
73918;BME280;63639;52.280;5.162;2022-10-19T12:17:29;102691.90;;;18.01;52.77
73918;BME280;63639;52.280;5.162;2022-10-19T12:19:59;102678.45;;;18.05;52.52
73918;BME280;63639;52.280;5.162;2022-10-19T12:22:29;102673.65;;;18.07;52.57
73918;BME280;63639;52.280;5.162;2022-10-19T12:24:58;102671.15;;;18.10;52.24
73918;BME280;63639;52.280;5.162;2022-10-19T12:27:29;102669.00;;;18.13;52.66
73918;BME280;63639;52.280;5.162;2022-10-19T12:30:02;102667.20;;;18.16;52.01
73918;BME280;63639;52.280;5.162;2022-10-19T12:32:37;102663.02;;;18.18;52.38
73918;BME280;63639;52.280;5.162;2022-10-19T12:35:14;102657.51;;;18.21;52.02
73918;BME280;63639;52.280;5.162;2022-10-19T12:37:48;102650.90;;;18.26;51.96
73918;BME280;63639;52.280;5.162;2022-10-19T12:40:22;102646.42;;;18.29;52.17
73918;BME280;63639;52.280;5.162;2022-10-19T12:42:58;102648.39;;;18.32;52.32
73918;BME280;63639;52.280;5.162;2022-10-19T12:45:30;102649.59;;;18.35;51.81
73918;BME280;63639;52.280;5.162;2022-10-19T12:48:18;102644.12;;;18.38;51.92
73918;BME280;63639;52.280;5.162;2022-10-19T12:51:19;102638.04;;;18.41;51.80
73918;BME280;63639;52.280;5.162;2022-10-19T12:53:47;102626.23;;;18.45;51.70
73918;BME280;63639;52.280;5.162;2022-10-19T12:56:18;102624.23;;;18.48;51.78
73918;BME280;63639;52.280;5.162;2022-10-19T12:58:50;102623.05;;;18.51;51.49
73918;BME280;63639;52.280;5.162;2022-10-19T13:01:42;102617.25;;;18.55;51.91
73918;BME280;63639;52.280;5.162;2022-10-19T13:04:10;102609.46;;;18.57;51.64
73918;BME280;63639;52.280;5.162;2022-10-19T13:06:40;102606.09;;;18.59;51.50
73918;BME280;63639;52.280;5.162;2022-10-19T13:09:21;102602.58;;;18.61;51.65